Time;durP1;ratioP1;P1;durP2;ratioP2;P2;SDS_P1;SDS_P2;PMS_P1;PMS_P2;Temp;Humidity;BMP_temperature;BMP_pressure;BME280_temperature;BME280_humidity;BME280_pressure;Samples;Min_cycle;Max_cycle;Signal;HPM_P1;HPM_P2
2023/06/21 00:01:49;;;;;;;10.40;9.40;;;23.40;99.60;;;23.45;76.04;100526.31;5056410;28;20276;-79
2023/06/21 00:04:21;;;;;;;10.33;9.33;;;23.40;99.90;;;23.23;75.84;100533.53;5056337;28;20291;-79
2023/06/21 00:06:53;;;;;;;11.00;9.47;;;23.30;99.80;;;23.19;76.15;100521.47;5054614;28;20300;-79
2023/06/21 00:09:26;;;;;;;11.17;10.10;;;23.20;99.90;;;23.21;76.08;100519.31;5054700;28;20194;-80
2023/06/21 00:11:57;;;;;;;10.27;9.37;;;23.20;99.90;;;23.06;76.77;100517.16;5054421;28;20264;-79
2023/06/21 00:14:30;;;;;;;11.90;10.90;;;23.10;99.90;;;22.97;76.95;100526.00;5054534;28;20226;-79
2023/06/21 00:17:02;;;;;;;10.70;9.60;;;22.90;99.90;;;22.76;78.25;100515.78;5054462;28;20198;-80
2023/06/21 00:19:34;;;;;;;10.17;9.27;;;22.80;99.90;;;22.70;77.69;100513.00;5054797;28;20244;-79
2023/06/21 00:22:06;;;;;;;10.80;9.80;;;22.70;99.90;;;22.85;77.99;100497.94;5054545;28;20731;-79
2023/06/21 00:24:38;;;;;;;11.17;10.17;;;22.80;99.90;;;22.95;77.48;100496.22;5054741;28;20218;-79
2023/06/21 00:27:10;;;;;;;9.80;9.00;;;23.00;99.90;;;23.07;76.07;100491.50;5053717;28;20214;-79
2023/06/21 00:29:43;;;;;;;10.20;9.13;;;23.10;99.90;;;23.12;75.49;100493.47;5054249;28;20674;-79
2023/06/21 00:32:15;;;;;;;9.80;8.90;;;23.10;99.90;;;23.21;74.71;100487.38;5055233;28;20293;-79
2023/06/21 00:34:47;;;;;;;9.63;8.67;;;23.20;99.70;;;22.99;75.50;100488.34;5054093;28;20230;-80
2023/06/21 00:37:19;;;;;;;9.20;7.87;;;23.00;99.90;;;22.97;75.72;100490.50;5054077;28;20222;-79
2023/06/21 00:39:51;;;;;;;8.57;7.87;;;23.00;99.90;;;22.91;76.09;100486.84;5055291;28;20269;-79
2023/06/21 00:42:23;;;;;;;9.00;7.43;;;22.90;99.90;;;22.88;74.64;100484.63;5053931;28;20216;-80
2023/06/21 00:44:57;;;;;;;7.57;6.87;;;22.90;99.70;;;22.99;74.72;100488.34;5054563;28;20253;-80
2023/06/21 00:47:30;;;;;;;7.87;7.17;;;22.90;99.80;;;23.05;74.32;100481.91;5055588;28;20214;-80
2023/06/21 00:50:02;;;;;;;7.43;6.80;;;23.00;99.50;;;22.95;74.47;100490.75;5054860;28;20199;-80
2023/06/21 00:52:37;;;;;;;9.63;7.30;;;22.90;99.50;;;22.93;74.48;100489.34;5053519;28;20257;-79
2023/06/21 00:55:12;;;;;;;7.77;7.00;;;22.90;99.50;;;22.70;75.28;100488.44;5053489;28;20198;-79
2023/06/21 00:57:44;;;;;;;8.30;7.37;;;22.70;99.80;;;22.83;75.65;100483.72;5053160;28;20676;-79
2023/06/21 01:00:20;;;;;;;7.43;6.63;;;22.70;99.90;;;22.77;74.46;100471.06;5053868;28;20191;-79
2023/06/21 01:02:54;;;;;;;10.73;7.03;;;22.80;99.50;;;22.84;74.64;100479.91;5053474;28;20268;-79
2023/06/21 01:05:30;;;;;;;7.73;6.80;;;22.80;99.60;;;22.91;73.82;100473.19;5053642;28;20190;-79
2023/06/21 01:08:12;;;;;;;7.40;6.70;;;22.90;99.30;;;22.90;74.26;100474.28;5053152;28;20532;-79
2023/06/21 01:11:03;;;;;;;7.27;6.63;;;22.90;99.30;;;22.96;73.32;100483.38;5053588;28;20273;-79
2023/06/21 01:13:48;;;;;;;7.57;6.67;;;22.90;99.00;;;22.98;72.96;100489.44;5053270;28;20309;-79
2023/06/21 01:16:27;;;;;;;7.03;6.43;;;22.90;98.80;;;22.97;72.62;100491.34;5053156;28;20277;-79
2023/06/21 01:19:01;;;;;;;7.30;6.60;;;22.90;98.80;;;22.99;72.83;100499.28;5053451;28;20232;-79
2023/06/21 01:21:34;;;;;;;7.47;6.70;;;23.00;98.80;;;22.93;72.85;100501.09;5053220;28;20651;-79
2023/06/21 01:24:25;;;;;;;7.47;6.50;;;22.90;98.80;;;22.86;72.84;100497.69;5053270;28;20226;-79
2023/06/21 01:27:07;;;;;;;6.80;6.10;;;22.80;98.80;;;22.81;72.91;100497.59;5053213;28;20229;-79
2023/06/21 01:29:47;;;;;;;6.70;5.90;;;22.80;98.90;;;22.79;72.88;100493.47;5053232;28;20672;-79
2023/06/21 01:32:21;;;;;;;7.50;6.70;;;22.70;98.80;;;22.76;72.96;100488.50;5052948;28;20190;-79
2023/06/21 01:34:54;;;;;;;7.37;6.43;;;22.70;98.80;;;22.73;73.14;100500.75;5052971;28;20715;-79
2023/06/21 01:37:26;;;;;;;6.90;6.20;;;22.70;98.80;;;22.63;73.37;100501.38;5054079;28;20195;-78
2023/06/21 01:40:09;;;;;;;7.60;6.10;;;22.60;99.10;;;22.61;73.62;100500.75;5057443;28;20194;-79
2023/06/21 01:42:41;;;;;;;7.37;6.07;;;22.50;99.30;;;22.57;73.93;100493.31;5057309;28;20712;-79
2023/06/21 01:45:15;;;;;;;6.80;6.20;;;22.50;99.20;;;22.22;74.62;100494.31;5057685;28;20277;-78
2023/06/21 01:47:49;;;;;;;6.90;6.20;;;22.30;99.50;;;22.32;74.38;100506.47;5057394;28;20210;-79
2023/06/21 01:50:22;;;;;;;6.87;6.17;;;22.30;99.70;;;22.10;75.37;100511.75;5057933;28;20281;-79
2023/06/21 01:52:56;;;;;;;7.43;6.20;;;22.10;99.90;;;22.01;75.56;100502.28;5057614;28;20659;-78
2023/06/21 01:55:31;;;;;;;8.77;5.90;;;22.00;99.90;;;22.00;76.05;100506.09;5058011;28;20674;-78
2023/06/21 01:58:04;;;;;;;6.33;5.73;;;22.00;99.90;;;21.97;76.28;100507.41;5057060;28;20274;-78
2023/06/21 02:00:37;;;;;;;7.87;6.40;;;22.00;99.90;;;21.59;77.02;100513.34;5055970;28;20190;-79
2023/06/21 02:03:15;;;;;;;9.40;6.30;;;21.70;99.90;;;21.62;77.47;100521.03;5057607;28;20309;-79
2023/06/21 02:05:48;;;;;;;7.60;6.20;;;21.70;99.90;;;21.40;78.52;100514.53;5057747;28;20186;-79
2023/06/21 02:08:21;;;;;;;7.60;5.70;;;21.50;99.90;;;21.40;77.71;100514.53;5057890;28;20241;-79
2023/06/21 02:10:53;;;;;;;7.00;6.30;;;21.50;99.90;;;21.32;78.36;100508.59;5057614;28;20269;-79
2023/06/21 02:13:26;;;;;;;6.60;5.90;;;21.40;99.90;;;21.36;78.12;100513.34;5057063;28;20225;-79
2023/06/21 02:16:00;;;;;;;7.00;6.30;;;21.40;99.90;;;21.38;78.13;100516.66;5057357;28;20245;-79
2023/06/21 02:18:32;;;;;;;6.53;5.67;;;21.40;99.90;;;21.37;77.87;100514.97;5057511;28;20250;-79
2023/06/21 02:21:04;;;;;;;7.07;5.53;;;21.50;99.90;;;21.47;77.00;100530.75;5056889;28;20222;-79
2023/06/21 02:23:36;;;;;;;8.43;5.67;;;21.50;99.90;;;21.41;77.96;100540.69;5057196;28;20313;-79
2023/06/21 02:26:09;;;;;;;9.33;6.10;;;21.50;99.90;;;21.47;77.52;100555.28;5057481;28;20202;-79
2023/06/21 02:28:44;;;;;;;6.20;5.60;;;21.50;99.90;;;21.51;77.10;100562.72;5056893;28;20190;-79
2023/06/21 02:31:17;;;;;;;10.23;6.00;;;21.60;99.90;;;21.36;77.88;100575.97;5055355;28;20194;-79
2023/06/21 02:33:50;;;;;;;8.63;6.27;;;21.40;99.90;;;21.38;78.40;100573.84;5055622;28;20321;-79
2023/06/21 02:36:22;;;;;;;6.97;6.27;;;21.40;99.90;;;21.40;77.44;100574.47;5055318;28;20192;-78
2023/06/21 02:38:55;;;;;;;8.40;6.00;;;21.40;99.90;;;21.37;77.78;100574.09;5055148;28;20555;-79
2023/06/21 02:41:27;;;;;;;6.90;6.17;;;21.40;99.90;;;21.28;78.45;100573.59;5055025;28;20659;-79
2023/06/21 02:43:59;;;;;;;7.87;5.87;;;21.30;99.90;;;21.40;77.41;100571.75;5055437;28;20230;-79
2023/06/21 02:46:33;;;;;;;6.40;5.80;;;21.40;99.90;;;21.47;76.61;100583.31;5054965;28;20237;-79
2023/06/21 02:49:05;;;;;;;6.53;5.73;;;21.50;99.90;;;21.46;76.99;100586.28;5054355;28;20190;-79
2023/06/21 02:51:37;;;;;;;10.77;6.27;;;21.50;99.90;;;21.52;76.68;100590.78;5055284;28;20236;-79
2023/06/21 02:54:09;;;;;;;7.20;5.70;;;21.50;99.90;;;21.45;76.68;100593.63;5055196;28;20261;-79
2023/06/21 02:56:42;;;;;;;7.90;6.07;;;21.50;99.90;;;21.44;77.36;100593.88;5054867;28;20679;-79
2023/06/21 02:59:14;;;;;;;9.60;5.70;;;21.40;99.90;;;21.46;77.26;100589.84;5055137;28;20236;-79
2023/06/21 03:01:46;;;;;;;7.47;6.20;;;21.50;99.90;;;21.23;78.04;100579.72;5055190;28;20222;-79
2023/06/21 03:04:19;;;;;;;9.00;6.50;;;21.40;99.90;;;21.22;78.06;100602.59;5054693;28;20313;-79
2023/06/21 03:06:51;;;;;;;9.60;6.90;;;21.30;99.90;;;20.95;80.01;100595.88;5055008;28;20219;-78
2023/06/21 03:09:23;;;;;;;7.43;6.73;;;21.10;99.90;;;21.10;78.69;100614.50;5055673;28;20190;-79
2023/06/21 03:11:55;;;;;;;8.53;7.17;;;21.10;99.90;;;21.04;79.43;100615.41;5056622;28;20263;-80
2023/06/21 03:14:27;;;;;;;11.07;8.40;;;21.10;99.90;;;21.01;79.78;100610.41;5054830;28;20244;-79
2023/06/21 03:17:02;;;;;;;9.07;8.10;;;21.10;99.90;;;20.95;80.44;100611.34;5054780;28;20664;-79
2023/06/21 03:19:34;;;;;;;9.17;8.13;;;21.10;99.90;;;21.06;79.08;100618.75;5054596;28;20634;-79
2023/06/21 03:22:07;;;;;;;10.77;7.97;;;21.20;99.90;;;21.06;80.01;100611.38;5054621;28;20191;-79
2023/06/21 03:24:39;;;;;;;9.57;8.63;;;21.20;99.90;;;20.95;80.98;100617.63;5054654;28;20221;-79
2023/06/21 03:27:11;;;;;;;9.33;8.53;;;21.10;99.90;;;21.04;79.31;100626.28;5054242;28;20527;-79
2023/06/21 03:29:43;;;;;;;9.23;8.33;;;21.10;99.90;;;20.94;80.54;100613.25;5054614;28;20331;-79
2023/06/21 03:32:16;;;;;;;10.10;9.10;;;21.00;99.90;;;20.92;81.07;100619.97;5054211;28;20285;-79
2023/06/21 03:34:48;;;;;;;9.77;8.87;;;21.10;99.90;;;20.89;80.56;100623.16;5054732;28;20277;-79
2023/06/21 03:37:20;;;;;;;12.10;9.27;;;21.00;99.90;;;20.92;81.08;100628.16;5054477;28;20285;-79
2023/06/21 03:39:52;;;;;;;10.97;9.27;;;21.00;99.90;;;20.93;80.51;100625.19;5054530;28;20281;-79
2023/06/21 03:42:24;;;;;;;9.33;8.43;;;21.10;99.90;;;20.92;80.68;100628.97;5054105;28;20652;-79
2023/06/21 03:44:56;;;;;;;10.27;9.27;;;21.10;99.90;;;20.92;80.94;100645.31;5054979;28;20194;-79
2023/06/21 03:47:29;;;;;;;10.70;8.90;;;21.10;99.90;;;20.96;80.11;100645.69;5054224;28;20210;-79
2023/06/21 03:50:01;;;;;;;11.07;9.13;;;21.00;99.90;;;20.86;81.01;100653.53;5054723;28;20206;-79
2023/06/21 03:52:33;;;;;;;10.83;9.73;;;21.00;99.90;;;20.83;81.38;100656.72;5053856;28;20652;-79
2023/06/21 03:55:09;;;;;;;10.43;9.43;;;20.90;99.90;;;20.82;81.50;100650.47;5054280;28;20194;-78
2023/06/21 03:57:41;;;;;;;10.67;9.67;;;20.90;99.90;;;20.88;80.74;100656.88;5053856;28;20182;-78
2023/06/21 04:00:14;;;;;;;10.63;9.47;;;21.00;99.90;;;20.79;80.84;100667.22;5053752;28;20218;-79
2023/06/21 04:02:47;;;;;;;10.10;8.80;;;20.90;99.90;;;20.91;80.24;100675.47;5053198;28;20262;-78
2023/06/21 04:05:19;;;;;;;12.97;9.43;;;21.00;99.90;;;20.73;81.84;100687.19;5054327;28;20281;-78
2023/06/21 04:07:51;;;;;;;10.60;9.50;;;20.90;99.90;;;20.83;80.91;100701.09;5053856;28;20249;-78
2023/06/21 04:10:23;;;;;;;11.57;9.70;;;21.00;99.90;;;20.82;81.40;100699.47;5053890;28;20193;-78
2023/06/21 04:12:55;;;;;;;10.90;9.87;;;20.90;99.90;;;20.89;80.71;100707.53;5053725;28;20317;-79
2023/06/21 04:15:29;;;;;;;10.53;9.53;;;21.00;99.90;;;20.85;81.31;100714.47;5053823;28;20193;-79
2023/06/21 04:18:03;;;;;;;12.77;10.07;;;21.00;99.90;;;20.85;81.39;100720.75;5053856;28;20208;-79
2023/06/21 04:20:35;;;;;;;12.23;10.93;;;21.00;99.90;;;20.70;82.14;100720.31;5054506;28;20281;-79
2023/06/21 04:23:06;;;;;;;10.03;9.03;;;20.90;99.90;;;20.78;81.15;100735.50;5053603;28;20225;-79
2023/06/21 04:25:38;;;;;;;13.97;10.27;;;20.90;99.90;;;20.80;82.05;100730.66;5053614;28;20237;-79
2023/06/21 04:28:12;;;;;;;10.83;9.83;;;21.00;99.90;;;20.84;82.16;100718.25;5053389;28;20214;-78
2023/06/21 04:30:44;;;;;;;10.73;9.53;;;21.00;99.90;;;20.87;81.26;100724.06;5053655;28;20278;-78
2023/06/21 04:33:17;;;;;;;10.60;9.60;;;21.00;99.90;;;20.85;81.67;100730.81;5062792;28;20293;-77
2023/06/21 04:35:49;;;;;;;12.60;10.30;;;21.10;99.90;;;20.83;81.54;100732.91;5071868;28;20222;-78
2023/06/21 04:38:22;;;;;;;11.03;10.03;;;21.00;99.90;;;20.83;81.76;100727.47;5064960;28;20269;-78
2023/06/21 04:40:55;;;;;;;11.13;9.97;;;21.00;99.90;;;20.75;82.03;100737.59;5068204;28;20218;-78
2023/06/21 04:43:27;;;;;;;10.93;9.83;;;21.00;99.90;;;20.78;82.36;100743.66;5067149;28;20229;-79
2023/06/21 04:45:59;;;;;;;10.77;9.70;;;21.00;99.90;;;20.74;82.08;100752.28;5053511;28;20194;-79
2023/06/21 04:48:33;;;;;;;12.10;10.20;;;20.90;99.90;;;20.79;82.25;100767.91;5054462;28;20210;-79
2023/06/21 04:51:05;;;;;;;11.57;10.37;;;21.00;99.90;;;20.78;82.10;100771.72;5054732;28;20658;-79
2023/06/21 04:53:37;;;;;;;11.13;9.93;;;21.00;99.90;;;20.72;82.05;100757.09;5054516;28;20673;-79
2023/06/21 04:56:12;;;;;;;10.13;9.03;;;21.00;99.90;;;20.85;81.54;100755.31;5053457;28;20194;-79
2023/06/21 04:58:43;;;;;;;10.07;9.10;;;21.10;99.90;;;20.91;81.33;100762.56;5053358;28;20289;-78
2023/06/21 05:01:15;;;;;;;11.27;10.10;;;21.10;99.90;;;20.84;81.49;100756.34;5053660;28;20194;-79
2023/06/21 05:03:51;;;;;;;14.03;9.67;;;21.00;99.90;;;20.92;81.87;100759.63;5053095;28;20663;-79
2023/06/21 05:06:25;;;;;;;10.97;9.80;;;21.10;99.90;;;20.87;80.26;100751.28;5053519;28;20231;-79
2023/06/21 05:08:57;;;;;;;11.80;8.70;;;21.10;99.90;;;20.89;80.38;100757.31;5053607;28;20228;-79
2023/06/21 05:11:29;;;;;;;10.07;9.10;;;21.10;99.90;;;20.90;80.93;100766.31;5053449;28;20214;-78
2023/06/21 05:14:01;;;;;;;10.97;8.43;;;21.10;99.90;;;20.92;80.43;100766.94;5057405;28;20225;-78
2023/06/21 05:16:33;;;;;;;9.93;8.70;;;21.20;99.90;;;20.94;80.57;100762.09;5057179;28;20750;-78
2023/06/21 05:19:07;;;;;;;10.17;8.63;;;21.10;99.90;;;20.94;80.04;100756.66;5057417;28;20273;-79
2023/06/21 05:21:39;;;;;;;8.83;8.00;;;21.10;99.90;;;20.97;80.33;100767.09;5057204;28;20221;-78
2023/06/21 05:24:10;;;;;;;9.40;7.80;;;21.20;99.90;;;20.91;79.13;100771.56;5057401;28;20659;-78
2023/06/21 05:26:44;;;;;;;10.77;7.63;;;21.10;99.90;;;20.95;79.16;100770.03;5057272;28;20241;-79
2023/06/21 05:29:16;;;;;;;8.37;7.10;;;21.20;99.90;;;20.99;78.94;100779.44;5056950;28;20672;-79
2023/06/21 05:31:48;;;;;;;8.60;7.70;;;21.20;99.90;;;21.00;78.64;100772.91;5057502;28;20195;-79
2023/06/21 05:34:21;;;;;;;7.70;6.73;;;21.20;99.90;;;21.03;78.09;100779.78;5056922;28;20689;-79
2023/06/21 05:36:53;;;;;;;7.20;6.50;;;21.30;99.90;;;21.06;78.12;100776.63;5057033;28;20365;-79
2023/06/21 05:39:25;;;;;;;9.53;6.97;;;21.30;99.90;;;21.08;78.03;100786.22;5056649;28;20640;-79
2023/06/21 05:41:57;;;;;;;7.77;6.97;;;21.30;99.90;;;21.08;77.95;100785.38;5057088;28;20594;-79
2023/06/21 05:44:29;;;;;;;7.47;6.67;;;21.30;99.90;;;21.13;77.49;100789.09;5056253;28;20782;-79
2023/06/21 05:47:01;;;;;;;7.07;6.37;;;21.40;99.90;;;21.14;77.10;100788.06;5056289;28;20186;-79
2023/06/21 05:49:34;;;;;;;6.90;6.30;;;21.40;99.90;;;21.11;76.32;100791.22;5056493;28;20250;-78
2023/06/21 05:52:06;;;;;;;8.27;6.50;;;21.30;99.90;;;21.16;76.88;100796.00;5056091;28;20648;-78
2023/06/21 05:54:41;;;;;;;8.00;7.00;;;21.40;99.90;;;21.18;77.39;100811.03;5056415;28;20190;-78
2023/06/21 05:57:15;;;;;;;8.00;6.00;;;21.40;99.90;;;21.23;76.47;100821.25;5056375;28;20251;-79
2023/06/21 05:59:47;;;;;;;6.60;6.00;;;21.50;99.90;;;21.22;76.34;100809.53;5056008;28;20187;-79
2023/06/21 06:02:19;;;;;;;6.40;5.80;;;21.50;99.90;;;21.26;76.76;100820.81;5056161;28;20186;-79
2023/06/21 06:04:52;;;;;;;9.13;6.50;;;21.50;99.90;;;21.19;76.10;100814.59;5056258;28;20195;-79
2023/06/21 06:07:27;;;;;;;8.57;5.90;;;21.40;99.90;;;21.15;75.45;100824.28;5056193;28;20247;-79
2023/06/21 06:09:59;;;;;;;7.67;6.17;;;21.40;99.90;;;21.19;76.29;100829.06;5055658;28;20206;-78
2023/06/21 06:12:31;;;;;;;6.93;6.23;;;21.40;99.90;;;21.18;75.74;100823.81;5055941;28;20312;-78
2023/06/21 06:15:03;;;;;;;8.37;6.27;;;21.40;99.90;;;21.15;75.26;100829.72;5055991;28;20252;-78
2023/06/21 06:17:35;;;;;;;8.80;6.20;;;21.40;99.90;;;21.20;75.69;100832.59;5055900;28;20281;-79
2023/06/21 06:20:11;;;;;;;7.93;6.00;;;21.40;99.90;;;21.23;74.72;100832.16;5056038;28;20197;-79
2023/06/21 06:22:43;;;;;;;6.87;6.10;;;21.50;99.80;;;21.30;74.90;100853.88;5056157;28;20763;-78
2023/06/21 06:25:15;;;;;;;6.93;5.87;;;21.50;99.90;;;21.35;75.69;100848.53;5054730;28;20278;-78
2023/06/21 06:27:47;;;;;;;6.93;5.90;;;21.60;99.90;;;21.37;74.87;100858.16;5056083;28;20190;-78
2023/06/21 06:30:18;;;;;;;7.43;5.77;;;21.70;99.90;;;21.39;74.82;100864.22;5055822;28;20302;-78
2023/06/21 06:32:50;;;;;;;6.97;6.23;;;21.60;99.90;;;21.51;74.95;100856.09;5056095;28;20226;-78
2023/06/21 06:35:23;;;;;;;6.83;6.20;;;21.80;99.90;;;21.53;74.35;100856.72;5055666;28;20228;-78
2023/06/21 06:37:55;;;;;;;6.83;6.20;;;21.80;99.60;;;21.60;73.71;100855.56;5055600;28;20209;-78
2023/06/21 06:40:29;;;;;;;7.30;5.90;;;21.90;99.30;;;21.63;75.09;100860.56;5055492;28;20218;-78
2023/06/21 06:43:01;;;;;;;6.80;5.47;;;22.00;99.70;;;21.66;72.94;100865.53;5055586;28;20222;-78
2023/06/21 06:45:33;;;;;;;6.83;4.90;;;21.90;98.80;;;21.73;72.04;100866.28;5055814;28;20285;-78
2023/06/21 06:48:05;;;;;;;6.23;4.93;;;22.00;98.60;;;21.74;71.62;100857.06;5055384;28;20598;-78
2023/06/21 06:50:38;;;;;;;4.97;4.53;;;22.10;98.40;;;21.80;71.41;100865.34;5055571;28;20218;-78
2023/06/21 06:53:10;;;;;;;8.37;5.00;;;22.10;98.10;;;21.84;70.66;100866.56;5055390;28;20309;-78
2023/06/21 06:55:42;;;;;;;4.90;4.43;;;22.10;97.60;;;21.84;71.03;100855.66;5055380;28;20197;-78
2023/06/21 06:58:14;;;;;;;4.70;4.20;;;22.10;97.80;;;21.83;70.42;100864.91;5055602;28;20562;-78
2023/06/21 07:00:46;;;;;;;7.70;5.40;;;22.10;97.60;;;21.86;70.57;100867.16;5055113;28;20232;-78
2023/06/21 07:03:17;;;;;;;8.43;5.17;;;22.10;97.60;;;21.93;70.82;100871.50;5055031;28;20316;-78
2023/06/21 07:05:51;;;;;;;6.33;4.97;;;22.20;97.80;;;21.91;70.81;100870.06;5054830;28;20613;-78
2023/06/21 07:08:23;;;;;;;5.23;4.73;;;22.20;97.60;;;21.93;70.86;100865.19;5055146;28;20248;-78
2023/06/21 07:10:55;;;;;;;8.13;5.13;;;22.20;97.80;;;21.95;70.15;100879.44;5054957;28;20186;-78
2023/06/21 07:13:28;;;;;;;11.90;5.40;;;22.20;97.30;;;22.04;69.80;100873.44;5054807;28;20767;-78
2023/06/21 07:16:00;;;;;;;7.23;5.23;;;22.40;97.50;;;22.14;69.10;100878.31;5054826;28;20290;-78
2023/06/21 07:18:33;;;;;;;8.37;5.00;;;22.40;96.90;;;22.19;69.03;100875.75;5054805;28;20301;-78
2023/06/21 07:21:06;;;;;;;5.43;4.90;;;22.50;96.80;;;22.20;67.35;100882.84;5054510;28;20657;-78
2023/06/21 07:23:38;;;;;;;6.10;4.63;;;22.50;96.10;;;22.19;67.20;100887.44;5054516;28;20746;-78
2023/06/21 07:26:10;;;;;;;8.57;5.07;;;22.50;95.90;;;22.19;67.58;100892.09;5054927;28;20241;-78
2023/06/21 07:28:42;;;;;;;6.47;4.77;;;22.50;96.10;;;22.22;67.15;100889.75;5054261;28;20658;-78
2023/06/21 07:31:14;;;;;;;9.40;4.80;;;22.50;95.80;;;22.24;67.98;100894.94;5053257;28;20194;-78
2023/06/21 07:33:48;;;;;;;9.70;5.07;;;22.60;96.20;;;22.26;67.72;100903.72;5052433;28;20226;-78
2023/06/21 07:36:22;;;;;;;5.37;4.73;;;22.50;96.00;;;22.28;67.94;100898.88;5052019;28;20656;-78
2023/06/21 07:38:54;;;;;;;6.40;4.47;;;22.60;96.00;;;22.35;67.44;100906.97;5052451;28;20198;-78
2023/06/21 07:41:26;;;;;;;6.33;4.70;;;22.60;96.00;;;22.40;65.71;100910.63;5052529;28;20282;-78
2023/06/21 07:43:58;;;;;;;7.63;5.00;;;22.70;94.90;;;22.51;65.20;100918.03;5052424;28;20268;-78
2023/06/21 07:46:29;;;;;;;5.40;4.63;;;22.80;94.80;;;22.53;66.49;100913.19;5053555;28;20197;-78
2023/06/21 07:49:01;;;;;;;8.07;5.13;;;22.80;95.40;;;22.62;66.19;100913.66;5054385;28;20556;-79
2023/06/21 07:51:36;;;;;;;6.13;4.83;;;22.90;95.10;;;22.70;66.01;100922.38;5054928;28;20202;-78
2023/06/21 07:54:09;;;;;;;7.70;5.07;;;23.00;95.30;;;22.74;66.85;100907.16;5054851;28;20226;-79
2023/06/21 07:56:41;;;;;;;7.03;4.80;;;23.00;95.40;;;22.86;63.75;100928.19;5055192;28;20277;-79
2023/06/21 07:59:13;;;;;;;6.27;5.63;;;23.10;93.90;;;22.87;64.29;100927.13;5054035;28;20191;-78
2023/06/21 08:01:45;;;;;;;7.33;6.27;;;23.20;94.30;;;22.87;64.14;100932.59;5055071;28;20289;-80
2023/06/21 08:04:16;;;;;;;7.67;4.77;;;23.20;94.00;;;22.91;64.42;100922.88;5055118;28;20806;-79
2023/06/21 08:06:50;;;;;;;5.47;4.97;;;23.20;94.70;;;23.03;63.96;100932.72;5055457;28;20222;-80
2023/06/21 08:09:22;;;;;;;6.67;5.10;;;23.30;94.60;;;23.16;62.35;100937.94;5054604;28;20297;-79
2023/06/21 08:11:55;;;;;;;5.40;4.90;;;23.40;93.00;;;23.14;62.23;100933.78;5055649;28;20201;-79
2023/06/21 08:14:28;;;;;;;6.37;4.97;;;23.40;93.00;;;23.17;62.67;100933.31;5054346;28;20312;-79
2023/06/21 08:17:02;;;;;;;5.90;4.83;;;23.50;93.10;;;23.15;61.17;100930.00;5054672;28;20190;-79
2023/06/21 08:19:34;;;;;;;5.50;4.30;;;23.40;92.30;;;23.16;61.40;100931.63;5055090;28;20226;-79
2023/06/21 08:22:07;;;;;;;5.90;5.20;;;23.40;92.50;;;23.25;62.71;100911.09;5055905;28;20281;-79
2023/06/21 08:24:39;;;;;;;6.60;5.77;;;23.50;92.90;;;23.31;64.07;100918.34;5055296;28;20218;-79
2023/06/21 08:27:14;;;;;;;5.13;4.60;;;23.60;93.80;;;23.42;60.68;100909.34;5055479;28;20201;-79
2023/06/21 08:29:47;;;;;;;6.20;5.60;;;23.70;91.90;;;23.46;61.75;100909.69;5054795;28;20275;-79
2023/06/21 08:32:20;;;;;;;5.93;5.33;;;23.80;92.60;;;23.60;62.18;100917.34;5054054;28;20607;-79
2023/06/21 08:34:53;;;;;;;6.37;5.73;;;23.90;92.60;;;23.63;62.71;100916.88;5054208;28;20199;-79
2023/06/21 08:37:27;;;;;;;5.47;4.83;;;23.90;92.90;;;23.66;59.13;100910.91;5054272;28;20285;-79
2023/06/21 08:40:00;;;;;;;5.80;5.23;;;24.00;91.40;;;23.87;59.73;100916.81;5054120;28;20187;-79
2023/06/21 08:42:32;;;;;;;7.43;5.63;;;24.10;91.40;;;23.82;60.98;100914.81;5053628;28;20268;-79
2023/06/21 08:45:04;;;;;;;6.10;5.03;;;24.10;92.00;;;23.93;59.33;100924.03;5053718;28;20638;-78
2023/06/21 08:47:37;;;;;;;6.27;5.67;;;24.20;91.70;;;23.95;58.59;100925.44;5053942;28;20252;-79
2023/06/21 08:50:13;;;;;;;5.60;5.00;;;24.30;90.50;;;23.99;58.99;100921.16;5055047;28;20223;-79
2023/06/21 08:52:52;;;;;;;8.93;5.73;;;24.30;90.90;;;24.08;58.87;100921.59;5054655;28;20228;-79
2023/06/21 08:55:26;;;;;;;6.63;5.53;;;24.40;90.80;;;24.17;58.07;100926.47;5053660;28;20285;-66
2023/06/21 08:58:05;;;;;;;7.53;5.83;;;24.40;90.40;;;24.15;58.50;100925.03;5053202;28;20186;-74
2023/06/21 09:00:49;;;;;;;7.07;5.20;;;24.40;90.40;;;24.21;57.02;100935.81;5052883;28;20193;-74
2023/06/21 09:03:31;;;;;;;6.87;5.10;;;24.50;89.30;;;24.40;57.40;100936.47;5053378;28;20226;-74
2023/06/21 09:06:11;;;;;;;6.43;5.13;;;24.70;89.90;;;24.45;55.93;100939.28;5053165;28;20277;-74
2023/06/21 09:08:47;;;;;;;6.03;5.20;;;24.80;87.80;;;24.48;55.83;100947.00;5052825;28;20654;-74
2023/06/21 09:11:24;;;;;;;5.43;4.83;;;24.70;87.70;;;24.46;54.53;100940.94;5053007;28;20260;-74
2023/06/21 09:13:56;;;;;;;5.90;5.10;;;24.70;85.90;;;24.57;53.43;100942.78;5052916;28;20787;-74
2023/06/21 09:16:28;;;;;;;6.30;4.93;;;24.80;84.50;;;24.63;54.90;100944.53;5053039;28;20225;-76
2023/06/21 09:19:02;;;;;;;6.00;4.97;;;24.90;85.40;;;24.64;54.84;100968.09;5053007;28;20194;-76
2023/06/21 09:21:36;;;;;;;5.47;4.97;;;24.90;85.70;;;24.59;55.41;100957.03;5052987;28;20273;-76
2023/06/21 09:24:10;;;;;;;5.70;5.10;;;24.80;86.40;;;24.66;54.62;100954.16;5052575;28;20770;-75
2023/06/21 09:26:44;;;;;;;6.77;6.03;;;24.90;85.90;;;24.65;55.46;100953.34;5052865;28;20285;-74
2023/06/21 09:29:16;;;;;;;5.53;4.47;;;24.90;86.60;;;24.68;54.83;100955.59;5053071;28;20202;-74
2023/06/21 09:31:48;;;;;;;6.40;5.80;;;24.90;85.50;;;24.63;55.52;100955.47;5052823;28;20301;-74
2023/06/21 09:34:20;;;;;;;7.20;6.07;;;24.90;86.90;;;24.73;54.70;100952.06;5052726;28;20222;-74
2023/06/21 09:36:54;;;;;;;9.30;8.23;;;25.00;85.70;;;24.77;54.21;100953.25;5052957;28;20190;-73
2023/06/21 09:39:28;;;;;;;7.37;6.67;;;25.00;84.90;;;24.81;55.61;100961.78;5052521;28;20555;-73
2023/06/21 09:42:02;;;;;;;6.90;6.20;;;25.00;86.60;;;24.93;55.84;100973.56;5052651;28;20218;-74
2023/06/21 09:44:41;;;;;;;6.68;5.50;;;25.20;86.60;;;25.04;54.67;100967.13;5052723;28;20300;-74
2023/06/21 09:47:16;;;;;;;7.03;6.37;;;25.30;85.50;;;25.08;56.17;100969.13;5053023;28;20194;-74
2023/06/21 09:49:52;;;;;;;6.20;5.70;;;25.30;86.80;;;25.16;55.55;100976.94;5052792;28;20292;-74
2023/06/21 09:52:28;;;;;;;6.90;6.30;;;25.40;86.40;;;25.09;55.42;100970.81;5052638;28;20248;-74
2023/06/21 09:55:02;;;;;;;8.20;6.00;;;25.30;85.90;;;25.04;54.45;100973.44;5052375;28;20647;-74
2023/06/21 09:57:38;;;;;;;6.75;6.15;;;25.20;85.00;;;25.06;55.44;100973.22;5052657;28;20244;-73
2023/06/21 10:00:16;;;;;;;9.13;6.50;;;25.20;86.70;;;25.13;54.27;100974.72;5056134;28;20644;-73
2023/06/21 10:02:52;;;;;;;7.28;6.55;;;25.30;84.50;;;25.27;54.04;100983.41;5055937;28;20736;-73
2023/06/21 10:05:26;;;;;;;7.33;6.30;;;25.50;84.70;;;25.35;52.86;100972.00;5056215;28;20190;-73
2023/06/21 10:07:58;;;;;;;8.02;6.00;;;25.60;82.40;;;25.49;52.29;100976.03;5056220;28;20198;-73
2023/06/21 10:10:32;;;;;;;8.13;6.17;;;25.70;82.00;;;25.57;53.05;100966.59;5056090;28;20210;-73
2023/06/21 10:13:05;;;;;;;7.68;6.00;;;25.80;83.00;;;25.61;52.26;100982.28;5056123;28;20232;-73
2023/06/21 10:15:38;;;;;;;7.03;6.43;;;25.80;81.60;;;25.71;52.36;100984.34;5055859;28;20190;-73
2023/06/21 10:18:12;;;;;;;7.32;6.43;;;25.90;81.50;;;25.76;50.09;100976.16;5056312;28;20194;-73
2023/06/21 10:20:45;;;;;;;7.40;6.70;;;26.00;79.50;;;25.77;50.70;100983.31;5055937;28;20220;-73
2023/06/21 10:23:19;;;;;;;7.33;6.73;;;26.00;79.30;;;25.77;50.92;100988.81;5055794;28;20308;-74
2023/06/21 10:25:55;;;;;;;9.98;7.28;;;26.00;79.90;;;25.86;50.28;100987.25;5055789;28;20194;-74
2023/06/21 10:28:32;;;;;;;10.33;7.63;;;26.10;78.70;;;25.86;49.16;100989.19;5055490;28;20560;-74
2023/06/21 10:31:09;;;;;;;8.40;6.82;;;26.10;77.10;;;25.98;50.61;100987.16;5055711;28;20305;-74
2023/06/21 10:33:44;;;;;;;8.60;7.80;;;26.20;78.70;;;26.09;49.36;100991.69;5055579;28;20226;-74
2023/06/21 10:36:23;;;;;;;10.95;9.93;;;26.30;77.80;;;26.12;49.34;101002.97;5055610;28;20269;-74